createdAt,value
2022-09-07T00:01:15.960Z,69.40
2022-09-07T00:03:42.744Z,69.40
2022-09-07T00:06:11.921Z,69.50
2022-09-07T00:08:40.474Z,69.50
2022-09-07T00:11:16.324Z,69.70
2022-09-07T00:13:44.938Z,69.80
2022-09-07T00:16:24.534Z,69.80
2022-09-07T00:18:54.628Z,70.20
2022-09-07T00:21:22.010Z,70.60
2022-09-07T00:23:50.244Z,70.70
2022-09-07T00:26:25.727Z,70.80
2022-09-07T00:28:52.844Z,70.90
2022-09-07T00:31:22.293Z,70.90
2022-09-07T00:33:50.653Z,71.00
2022-09-07T00:36:19.085Z,70.90
2022-09-07T00:38:46.550Z,70.50
2022-09-07T00:41:14.544Z,70.50
2022-09-07T00:43:45.111Z,70.50
2022-09-07T00:46:16.389Z,70.60
2022-09-07T00:48:52.283Z,70.50
2022-09-07T00:51:25.932Z,70.70
2022-09-07T00:54:00.423Z,70.80
2022-09-07T00:56:32.862Z,71.00
2022-09-07T00:58:59.787Z,70.80
2022-09-07T01:01:27.835Z,70.60
2022-09-07T01:03:57.268Z,70.50
2022-09-07T01:06:28.725Z,70.70
2022-09-07T01:09:00.173Z,70.50
2022-09-07T01:11:27.069Z,70.60
2022-09-07T01:13:54.969Z,71.00
2022-09-07T01:17:06.502Z,71.10
2022-09-07T01:19:36.104Z,71.00
2022-09-07T01:22:21.028Z,70.90
2022-09-07T01:25:10.917Z,70.90
2022-09-07T01:28:03.544Z,71.00
2022-09-07T01:30:33.884Z,70.80
2022-09-07T01:33:15.290Z,70.60
2022-09-07T01:36:20.336Z,70.50
2022-09-07T01:38:53.151Z,70.40
2022-09-07T01:41:22.914Z,70.30
2022-09-07T01:44:05.725Z,70.40
2022-09-07T01:46:39.789Z,70.30
2022-09-07T01:49:13.744Z,70.10
2022-09-07T01:51:45.999Z,70.20
2022-09-07T01:54:22.303Z,70.20
2022-09-07T01:56:51.920Z,70.20
2022-09-07T01:59:38.719Z,70.10
2022-09-07T02:02:39.577Z,69.80
2022-09-07T02:05:11.730Z,69.80
2022-09-07T02:08:07.987Z,69.70
2022-09-07T02:10:45.758Z,69.70
2022-09-07T02:13:26.721Z,69.60
2022-09-07T02:16:06.928Z,69.50
2022-09-07T02:18:38.574Z,69.20
2022-09-07T02:21:07.889Z,69.10
2022-09-07T02:23:43.717Z,69.20
2022-09-07T02:26:16.613Z,69.20
2022-09-07T02:28:43.933Z,69.30
2022-09-07T02:31:10.931Z,69.40
2022-09-07T02:33:38.016Z,69.40
2022-09-07T02:36:06.146Z,69.10
2022-09-07T02:38:35.020Z,69.20
2022-09-07T02:41:03.185Z,69.10
2022-09-07T02:43:32.246Z,69.10
2022-09-07T02:46:18.295Z,69.00
2022-09-07T02:49:13.638Z,68.80
2022-09-07T02:52:34.351Z,68.90
2022-09-07T02:55:36.526Z,69.00
2022-09-07T02:58:23.653Z,68.60
2022-09-07T03:01:07.332Z,68.80
2022-09-07T03:04:01.764Z,69.10
2022-09-07T03:06:38.361Z,69.20
2022-09-07T03:09:15.140Z,69.20
2022-09-07T03:11:42.182Z,69.20
2022-09-07T03:14:13.299Z,69.00
2022-09-07T03:16:40.216Z,69.00
2022-09-07T03:19:06.990Z,68.90
2022-09-07T03:21:33.980Z,69.00
2022-09-07T03:24:00.892Z,68.90
2022-09-07T03:26:27.840Z,68.80
2022-09-07T03:28:54.742Z,68.80
2022-09-07T03:31:21.682Z,68.80
2022-09-07T03:33:48.860Z,68.80
2022-09-07T03:36:15.789Z,69.00
2022-09-07T03:38:42.604Z,69.20
2022-09-07T03:41:09.602Z,69.20
2022-09-07T03:43:36.617Z,69.30
2022-09-07T03:46:06.653Z,69.40
2022-09-07T03:48:34.921Z,69.40
2022-09-07T03:51:10.195Z,69.40
2022-09-07T03:53:39.911Z,69.40
2022-09-07T03:56:08.999Z,69.30
2022-09-07T03:58:36.501Z,69.30
2022-09-07T04:01:08.895Z,69.20
2022-09-07T04:03:36.114Z,69.20
2022-09-07T04:06:04.135Z,69.20
2022-09-07T04:08:33.132Z,69.00
2022-09-07T04:11:01.984Z,69.00
2022-09-07T04:13:30.334Z,69.20
2022-09-07T04:15:57.948Z,69.50
2022-09-07T04:18:25.278Z,69.40
2022-09-07T04:20:52.204Z,69.20
2022-09-07T04:23:19.929Z,69.20
2022-09-07T04:25:48.531Z,69.30
2022-09-07T04:28:16.984Z,69.40
2022-09-07T04:30:44.426Z,69.50
2022-09-07T04:33:11.729Z,69.50
2022-09-07T04:35:42.501Z,69.40
2022-09-07T04:38:13.987Z,69.70
2022-09-07T04:40:40.855Z,69.70
2022-09-07T04:43:09.510Z,69.70
2022-09-07T04:45:37.552Z,69.70
2022-09-07T04:48:05.119Z,69.50
2022-09-07T04:50:32.095Z,69.50
2022-09-07T04:52:58.882Z,69.50
2022-09-07T04:55:26.564Z,69.70
2022-09-07T04:57:53.432Z,69.80
2022-09-07T05:00:20.486Z,69.90
2022-09-07T05:02:47.285Z,69.90
2022-09-07T05:05:14.238Z,69.90
2022-09-07T05:07:41.100Z,69.80
2022-09-07T05:10:08.272Z,69.80
2022-09-07T05:12:35.089Z,69.90
2022-09-07T05:15:02.052Z,70.00
2022-09-07T05:17:31.051Z,70.10
2022-09-07T05:19:58.462Z,70.20
2022-09-07T05:22:25.549Z,70.10
2022-09-07T05:24:52.410Z,70.00
2022-09-07T05:27:19.306Z,70.10
2022-09-07T05:30:03.785Z,70.10
2022-09-07T05:32:32.093Z,70.30
2022-09-07T05:34:58.980Z,70.40
2022-09-07T05:37:25.748Z,70.50
2022-09-07T05:39:55.079Z,70.50
2022-09-07T05:42:22.742Z,70.60
2022-09-07T05:44:49.491Z,70.60
2022-09-07T05:47:16.407Z,70.60
2022-09-07T05:49:43.319Z,70.60
2022-09-07T05:52:10.557Z,70.70
2022-09-07T05:54:37.650Z,70.50
2022-09-07T05:57:04.909Z,70.50
2022-09-07T05:59:31.945Z,70.60
2022-09-07T06:01:59.504Z,70.70
2022-09-07T06:04:26.392Z,70.90
2022-09-07T06:07:18.086Z,70.80
2022-09-07T06:12:28.003Z,70.90
2022-09-07T06:14:54.856Z,70.90
2022-09-07T06:17:21.635Z,70.90
2022-09-07T06:19:48.677Z,70.90
2022-09-07T06:22:15.487Z,71.10
2022-09-07T06:24:42.532Z,71.20
2022-09-07T06:27:09.352Z,71.30
2022-09-07T06:29:36.262Z,71.20
2022-09-07T06:34:50.132Z,71.30
2022-09-07T06:37:16.974Z,71.40
2022-09-07T06:39:43.838Z,71.40
2022-09-07T06:42:10.630Z,71.40
2022-09-07T06:44:42.898Z,71.90
2022-09-07T06:47:10.684Z,72.10
2022-09-07T06:49:37.581Z,72.20
2022-09-07T06:52:04.562Z,72.50
2022-09-07T06:57:18.140Z,72.90
2022-09-07T06:59:44.903Z,73.00
2022-09-07T07:02:15.003Z,73.20
2022-09-07T07:04:41.893Z,73.20
2022-09-07T07:07:12.960Z,73.00
2022-09-07T07:09:40.460Z,73.20
2022-09-07T07:12:07.407Z,73.40
2022-09-07T07:14:36.448Z,73.60
2022-09-07T07:17:05.581Z,73.60
2022-09-07T07:19:32.455Z,73.70
2022-09-07T07:22:14.484Z,73.70
2022-09-07T07:24:46.099Z,73.80
2022-09-07T07:27:12.833Z,73.80
2022-09-07T07:29:39.558Z,73.90
2022-09-07T07:32:06.273Z,73.90
2022-09-07T07:34:33.124Z,73.80
2022-09-07T07:36:59.935Z,73.60
2022-09-07T07:42:13.356Z,73.50
2022-09-07T07:44:40.165Z,73.40
2022-09-07T07:47:07.014Z,73.30
2022-09-07T07:49:33.760Z,73.30
2022-09-07T07:54:48.056Z,73.00
2022-09-07T07:57:16.870Z,72.90
2022-09-07T07:59:43.615Z,72.70
2022-09-07T08:02:15.220Z,72.70
2022-09-07T08:04:42.215Z,72.30
2022-09-07T08:07:11.280Z,72.30
2022-09-07T08:09:42.916Z,72.50
2022-09-07T08:12:12.178Z,72.00
2022-09-07T08:14:41.108Z,72.20
2022-09-07T08:17:09.514Z,72.10
2022-09-07T08:19:36.415Z,72.10
2022-09-07T08:22:03.902Z,71.90
2022-09-07T08:24:32.188Z,71.50
2022-09-07T08:26:59.454Z,71.90
2022-09-07T08:29:27.232Z,71.70
2022-09-07T08:31:54.599Z,71.30
2022-09-07T08:34:21.907Z,70.90
2022-09-07T08:36:49.024Z,70.70
2022-09-07T08:39:16.018Z,70.80
2022-09-07T08:42:11.036Z,70.80
2022-09-07T08:44:46.600Z,70.80
2022-09-07T08:47:25.620Z,70.60
2022-09-07T08:50:01.326Z,70.40
2022-09-07T08:52:38.431Z,69.40
2022-09-07T08:55:20.990Z,68.80
2022-09-07T08:57:56.965Z,69.00
2022-09-07T09:00:24.115Z,69.00
2022-09-07T09:06:02.404Z,68.50
2022-09-07T09:08:46.656Z,67.60
2022-09-07T09:11:20.067Z,67.10
2022-09-07T09:14:15.061Z,66.90
2022-09-07T09:17:08.571Z,66.70
2022-09-07T09:20:12.675Z,66.50
2022-09-07T09:22:39.976Z,66.00
2022-09-07T09:25:26.611Z,65.90
2022-09-07T09:27:54.162Z,65.50
2022-09-07T09:30:22.966Z,65.10
2022-09-07T09:32:52.885Z,65.30
2022-09-07T09:35:23.076Z,65.30
2022-09-07T09:37:49.827Z,65.20
2022-09-07T09:40:29.251Z,65.00
2022-09-07T09:43:19.973Z,64.30
2022-09-07T09:48:40.065Z,64.00
2022-09-07T09:54:07.085Z,62.40
2022-09-07T09:56:43.691Z,61.90
2022-09-07T10:05:40.109Z,61.20
2022-09-07T10:08:18.892Z,61.10
2022-09-07T10:10:58.286Z,60.70
2022-09-07T10:13:55.746Z,60.20
2022-09-07T10:16:39.434Z,59.40
2022-09-07T10:19:06.461Z,58.80
2022-09-07T10:21:33.433Z,58.00
2022-09-07T10:24:14.333Z,57.50
2022-09-07T10:26:44.445Z,57.50
2022-09-07T10:29:31.527Z,57.70
2022-09-07T10:32:25.962Z,57.90
2022-09-07T10:35:18.819Z,57.10
2022-09-07T10:38:16.509Z,57.20
2022-09-07T10:40:45.329Z,57.50
2022-09-07T10:43:39.590Z,57.70
2022-09-07T10:49:31.905Z,56.50
2022-09-07T10:52:13.597Z,56.50
2022-09-07T10:54:56.232Z,56.10
2022-09-07T10:57:53.924Z,55.10
2022-09-07T11:00:22.550Z,54.60
2022-09-07T11:03:26.915Z,54.40
2022-09-07T11:06:22.002Z,54.40
2022-09-07T11:09:19.157Z,54.40
2022-09-07T11:12:08.209Z,53.40
2022-09-07T11:14:46.597Z,54.00
2022-09-07T11:17:18.237Z,54.20
2022-09-07T11:20:12.131Z,53.50
2022-09-07T11:22:49.665Z,53.30
2022-09-07T11:25:29.459Z,53.10
2022-09-07T11:28:03.964Z,53.00
2022-09-07T11:30:35.806Z,52.20
2022-09-07T11:33:19.718Z,51.40
2022-09-07T11:36:02.142Z,50.40
2022-09-07T11:38:40.249Z,50.30
2022-09-07T11:41:18.591Z,49.70
2022-09-07T11:44:14.973Z,49.60
2022-09-07T11:46:45.633Z,50.00
2022-09-07T11:49:24.728Z,49.90
2022-09-07T11:52:05.829Z,48.70
2022-09-07T11:54:41.912Z,49.20
2022-09-07T11:57:14.530Z,48.60
2022-09-07T12:00:06.206Z,47.80
2022-09-07T12:03:04.481Z,48.20
2022-09-07T12:05:42.313Z,47.80
2022-09-07T12:08:41.974Z,47.00
2022-09-07T12:11:22.605Z,47.50
2022-09-07T12:14:16.069Z,47.90
2022-09-07T12:17:11.336Z,47.90
2022-09-07T12:19:38.296Z,47.00
2022-09-07T12:22:18.135Z,47.20
2022-09-07T12:24:48.480Z,47.10
2022-09-07T12:27:21.084Z,46.70
2022-09-07T12:30:13.370Z,45.00
2022-09-07T12:32:54.879Z,44.90
2022-09-07T12:35:31.013Z,44.90
2022-09-07T12:38:25.063Z,45.00
2022-09-07T12:40:59.737Z,45.20
2022-09-07T12:43:36.116Z,44.10
2022-09-07T12:46:03.786Z,44.30
2022-09-07T12:48:46.635Z,44.30
2022-09-07T12:55:26.638Z,44.70
2022-09-07T12:58:31.169Z,44.20
2022-09-07T13:01:06.422Z,44.10
2022-09-07T13:03:55.683Z,43.60
2022-09-07T13:09:38.279Z,44.20
2022-09-07T13:15:33.882Z,42.00
2022-09-07T13:18:00.780Z,42.40
2022-09-07T13:20:36.225Z,42.90
2022-09-07T13:23:22.938Z,43.50
2022-09-07T13:25:55.879Z,43.20
2022-09-07T13:28:46.118Z,43.50
2022-09-07T13:32:08.109Z,43.60
2022-09-07T13:34:34.890Z,43.90
2022-09-07T13:37:04.908Z,44.40
2022-09-07T13:39:43.617Z,43.80
2022-09-07T13:42:17.459Z,43.40
2022-09-07T13:44:58.291Z,43.10
2022-09-07T13:47:54.880Z,42.40
2022-09-07T13:50:21.636Z,42.40
2022-09-07T13:53:29.730Z,43.00
2022-09-07T13:56:06.682Z,43.00
2022-09-07T13:58:40.352Z,43.00
2022-09-07T14:01:13.028Z,42.80
2022-09-07T14:03:46.333Z,42.40
2022-09-07T14:06:34.019Z,42.20
2022-09-07T14:09:18.502Z,42.40
2022-09-07T14:11:54.106Z,42.10
2022-09-07T14:14:24.703Z,42.40
2022-09-07T14:16:57.614Z,42.20
2022-09-07T14:19:40.778Z,41.80
2022-09-07T14:22:22.425Z,41.90
2022-09-07T14:24:51.432Z,42.00
2022-09-07T14:27:45.580Z,42.00
2022-09-07T14:30:16.728Z,41.80
2022-09-07T14:32:44.148Z,42.20
2022-09-07T14:35:17.548Z,42.30
2022-09-07T14:37:46.603Z,41.80
2022-09-07T14:40:19.458Z,42.10
2022-09-07T14:42:50.985Z,42.00
2022-09-07T14:45:23.777Z,41.80
2022-09-07T14:47:53.856Z,42.00
2022-09-07T14:50:24.615Z,41.70
2022-09-07T14:55:45.901Z,40.70
2022-09-07T14:58:15.987Z,40.10
2022-09-07T15:01:37.273Z,39.90
2022-09-07T15:03:52.633Z,39.90
2022-09-07T15:09:36.542Z,40.10
2022-09-07T15:12:17.737Z,40.10
2022-09-07T15:14:44.853Z,40.10
2022-09-07T15:20:36.417Z,40.90
2022-09-07T15:23:05.423Z,40.90
2022-09-07T15:25:34.541Z,40.60
2022-09-07T15:28:01.773Z,40.30
2022-09-07T15:30:28.569Z,40.20
2022-09-07T15:32:57.334Z,40.50
2022-09-07T15:35:24.757Z,40.80
2022-09-07T15:38:59.384Z,41.20
2022-09-07T15:41:10.539Z,41.00
2022-09-07T15:43:31.510Z,41.30
2022-09-07T15:45:58.542Z,41.20
2022-09-07T15:48:25.641Z,41.00
2022-09-07T15:50:59.818Z,41.20
2022-09-07T15:56:15.245Z,41.30
2022-09-07T15:58:43.935Z,41.30
2022-09-07T16:04:00.443Z,41.90
2022-09-07T16:06:27.399Z,42.30
2022-09-07T16:08:55.442Z,42.50
2022-09-07T16:11:25.197Z,42.60
2022-09-07T16:13:57.365Z,42.60
2022-09-07T16:17:26.504Z,42.70
2022-09-07T16:19:15.515Z,42.90
2022-09-07T16:21:43.096Z,42.70
2022-09-07T16:24:10.369Z,42.70
2022-09-07T16:26:37.779Z,42.90
2022-09-07T16:29:04.626Z,43.00
2022-09-07T16:31:33.109Z,42.90
2022-09-07T16:34:02.691Z,43.10
2022-09-07T16:36:30.345Z,43.10
2022-09-07T16:39:01.385Z,43.40
2022-09-07T16:41:31.843Z,43.40
2022-09-07T16:43:59.541Z,43.50
2022-09-07T16:46:29.222Z,43.60
2022-09-07T16:48:55.954Z,43.70
2022-09-07T16:51:23.993Z,43.90
2022-09-07T16:53:54.799Z,43.90
2022-09-07T16:56:24.146Z,44.00
2022-09-07T16:58:54.837Z,44.10
2022-09-07T17:01:24.640Z,44.30
2022-09-07T17:03:52.764Z,44.40
2022-09-07T17:06:21.207Z,44.30
2022-09-07T17:08:48.560Z,44.50
2022-09-07T17:11:18.017Z,44.60
2022-09-07T17:13:45.469Z,44.80
2022-09-07T17:16:15.287Z,44.90
2022-09-07T17:21:33.274Z,45.00
2022-09-07T17:24:00.643Z,45.00
2022-09-07T17:26:27.660Z,45.00
2022-09-07T17:29:00.307Z,45.00
2022-09-07T17:34:19.927Z,45.00
2022-09-07T17:36:49.915Z,45.10
2022-09-07T17:39:18.604Z,45.20
2022-09-07T17:41:48.064Z,45.20
2022-09-07T17:44:15.521Z,45.30
2022-09-07T17:46:42.381Z,45.50
2022-09-07T17:49:12.583Z,45.70
2022-09-07T17:51:39.548Z,45.90
2022-09-07T17:54:17.402Z,46.00
2022-09-07T17:56:45.277Z,46.10
2022-09-07T18:01:59.466Z,46.30
2022-09-07T18:04:28.214Z,46.40
2022-09-07T18:06:55.946Z,46.70
2022-09-07T18:09:23.040Z,46.90
2022-09-07T18:11:50.780Z,47.10
2022-09-07T18:14:19.442Z,47.20
2022-09-07T18:16:49.938Z,47.50
2022-09-07T18:19:18.262Z,47.80
2022-09-07T18:21:46.773Z,47.90
2022-09-07T18:24:20.889Z,48.10
2022-09-07T18:26:51.288Z,48.40
2022-09-07T18:29:33.985Z,48.50
2022-09-07T18:32:05.546Z,48.70
2022-09-07T18:34:34.865Z,48.80
2022-09-07T18:37:03.178Z,48.90
2022-09-07T18:39:30.259Z,48.90
2022-09-07T18:41:57.455Z,48.80
2022-09-07T18:47:22.364Z,49.20
2022-09-07T18:49:51.846Z,49.50
2022-09-07T18:55:08.630Z,49.90
2022-09-07T18:57:36.474Z,49.90
2022-09-07T19:00:06.079Z,50.00
2022-09-07T19:02:33.782Z,50.20
2022-09-07T19:07:48.448Z,50.70
2022-09-07T19:10:16.797Z,51.00
2022-09-07T19:12:45.883Z,51.20
2022-09-07T19:15:13.727Z,51.40
2022-09-07T19:17:40.826Z,51.50
2022-09-07T19:20:07.990Z,51.70
2022-09-07T19:22:34.901Z,52.00
2022-09-07T19:25:01.954Z,52.20
2022-09-07T19:27:29.148Z,52.40
2022-09-07T19:29:55.984Z,52.50
2022-09-07T19:32:22.993Z,52.40
2022-09-07T19:34:54.558Z,52.50
2022-09-07T19:37:26.173Z,52.60
2022-09-07T19:39:56.014Z,52.60
2022-09-07T19:42:23.893Z,52.70
2022-09-07T19:44:51.737Z,52.70
2022-09-07T19:47:19.246Z,52.70
2022-09-07T19:49:48.697Z,52.80
2022-09-07T19:52:15.708Z,52.80
2022-09-07T19:54:42.748Z,52.90
2022-09-07T19:57:13.171Z,52.80
2022-09-07T19:59:41.623Z,52.70
2022-09-07T20:02:10.503Z,53.00
2022-09-07T20:04:37.648Z,53.10
2022-09-07T20:07:05.534Z,53.10
2022-09-07T20:09:32.927Z,53.00
2022-09-07T20:12:01.821Z,53.20
2022-09-07T20:14:29.169Z,53.40
2022-09-07T20:16:55.972Z,53.50
2022-09-07T20:19:22.914Z,53.70
2022-09-07T20:21:49.950Z,53.70
2022-09-07T20:24:22.189Z,53.90
2022-09-07T20:26:49.837Z,54.00
2022-09-07T20:29:27.446Z,54.10
2022-09-07T20:31:59.642Z,54.10
2022-09-07T20:34:27.795Z,54.00
2022-09-07T20:36:55.269Z,54.00
2022-09-07T20:39:22.609Z,54.00
2022-09-07T20:41:49.566Z,54.00
2022-09-07T20:44:16.859Z,54.00
2022-09-07T20:46:44.240Z,54.30
2022-09-07T20:49:11.110Z,54.30
2022-09-07T20:51:38.869Z,54.40
2022-09-07T20:54:07.023Z,54.40
2022-09-07T20:56:33.806Z,54.40
2022-09-07T20:59:02.372Z,54.60
2022-09-07T21:01:30.673Z,54.70
2022-09-07T21:03:59.130Z,54.80
2022-09-07T21:06:27.473Z,54.90
2022-09-07T21:08:56.870Z,55.00
2022-09-07T21:11:26.185Z,55.10
2022-09-07T21:14:21.289Z,55.20
2022-09-07T21:16:49.294Z,55.40
2022-09-07T21:19:16.204Z,55.30
2022-09-07T21:21:43.321Z,55.40
2022-09-07T21:24:18.972Z,55.50
2022-09-07T21:26:48.144Z,55.50
2022-09-07T21:29:20.615Z,55.50
2022-09-07T21:31:49.715Z,55.60
2022-09-07T21:34:17.125Z,55.70
2022-09-07T21:36:44.346Z,55.60
2022-09-07T21:39:14.454Z,55.70
2022-09-07T21:41:43.435Z,55.80
2022-09-07T21:44:13.544Z,55.80
2022-09-07T21:46:40.865Z,55.90
2022-09-07T21:49:08.001Z,56.00
2022-09-07T21:51:35.173Z,56.10
2022-09-07T21:54:01.981Z,56.10
2022-09-07T21:56:30.154Z,56.20
2022-09-07T21:58:59.229Z,56.30
2022-09-07T22:01:27.567Z,56.40
2022-09-07T22:04:00.566Z,56.50
2022-09-07T22:06:28.595Z,56.60
2022-09-07T22:08:56.460Z,56.70
2022-09-07T22:11:24.998Z,56.70
2022-09-07T22:13:56.691Z,56.90
2022-09-07T22:16:24.235Z,57.00
2022-09-07T22:18:51.806Z,57.00
2022-09-07T22:21:21.319Z,57.20
2022-09-07T22:23:51.512Z,57.20
2022-09-07T22:26:20.814Z,57.20
2022-09-07T22:28:48.293Z,57.20
2022-09-07T22:31:15.183Z,57.20
2022-09-07T22:33:43.159Z,57.40
2022-09-07T22:36:12.987Z,57.40
2022-09-07T22:38:41.070Z,57.40
2022-09-07T22:41:22.970Z,57.40
2022-09-07T22:43:56.100Z,57.50
2022-09-07T22:46:25.456Z,57.40
2022-09-07T22:48:54.790Z,57.30
2022-09-07T22:51:21.951Z,57.30
2022-09-07T22:53:55.769Z,57.20
2022-09-07T22:56:25.185Z,57.30
2022-09-07T22:59:04.448Z,57.30
2022-09-07T23:01:32.506Z,57.40
2022-09-07T23:04:00.371Z,57.40
2022-09-07T23:06:28.811Z,57.40
2022-09-07T23:08:58.076Z,57.50
2022-09-07T23:11:25.828Z,57.50
2022-09-07T23:13:54.540Z,57.60
2022-09-07T23:16:22.474Z,57.60
2022-09-07T23:18:49.491Z,57.60
2022-09-07T23:21:16.576Z,57.40
2022-09-07T23:23:43.321Z,57.50
2022-09-07T23:26:10.146Z,57.80
2022-09-07T23:28:37.214Z,58.00
2022-09-07T23:31:04.292Z,58.10
2022-09-07T23:33:31.229Z,58.30
2022-09-07T23:36:00.736Z,58.60
2022-09-07T23:38:28.675Z,58.60
2022-09-07T23:40:57.302Z,58.80
2022-09-07T23:43:27.327Z,59.00
2022-09-07T23:45:55.080Z,58.90
2022-09-07T23:48:22.797Z,59.10
2022-09-07T23:50:50.249Z,59.20
2022-09-07T23:53:18.108Z,59.40
2022-09-07T23:55:46.559Z,59.50
2022-09-07T23:58:13.342Z,59.40
